createdAt,value
2023-01-13T00:00:05.576Z,98.45
2023-01-13T00:00:38.210Z,98.11
2023-01-13T00:01:12.095Z,98.52
2023-01-13T00:01:43.460Z,98.66
2023-01-13T00:02:14.813Z,98.63
2023-01-13T00:02:46.320Z,98.61
2023-01-13T00:03:17.850Z,98.13
2023-01-13T00:03:49.576Z,98.14
2023-01-13T00:04:20.965Z,98.28
2023-01-13T00:04:52.361Z,97.83
2023-01-13T00:05:25.597Z,98.26
2023-01-13T00:05:59.379Z,97.90
2023-01-13T00:06:30.769Z,97.92
2023-01-13T00:07:02.889Z,98.25
2023-01-13T00:07:34.230Z,97.63
2023-01-13T00:08:06.438Z,97.64
2023-01-13T00:08:37.740Z,97.75
2023-01-13T00:09:09.067Z,97.86
2023-01-13T00:09:40.435Z,97.64
2023-01-13T00:10:11.896Z,97.53
2023-01-13T00:10:48.084Z,97.55
2023-01-13T00:11:20.925Z,97.45
2023-01-13T00:11:52.456Z,97.53
2023-01-13T00:12:23.796Z,97.07
2023-01-13T00:12:55.200Z,97.23
2023-01-13T00:13:26.693Z,97.14
2023-01-13T00:13:58.082Z,97.03
2023-01-13T00:14:30.303Z,96.71
2023-01-13T00:15:01.621Z,96.55
2023-01-13T00:15:33.763Z,96.43
2023-01-13T00:16:08.291Z,96.21
2023-01-13T00:16:39.971Z,96.58
2023-01-13T00:17:11.502Z,96.53
2023-01-13T00:17:42.965Z,96.39
2023-01-13T00:18:14.281Z,96.04
2023-01-13T00:18:46.080Z,95.94
2023-01-13T00:19:17.687Z,95.82
2023-01-13T00:19:49.202Z,95.75
2023-01-13T00:20:20.944Z,95.81
2023-01-13T00:20:59.312Z,95.05
2023-01-13T00:21:30.809Z,94.95
2023-01-13T00:22:02.155Z,95.46
2023-01-13T00:22:36.651Z,95.32
2023-01-13T00:23:07.983Z,95.93
2023-01-13T00:23:40.133Z,95.55
2023-01-13T00:24:11.684Z,95.69
2023-01-13T00:24:43.064Z,95.55
2023-01-13T00:25:14.590Z,95.05
2023-01-13T00:25:45.901Z,95.18
2023-01-13T00:26:25.986Z,94.70
2023-01-13T00:26:57.417Z,94.92
2023-01-13T00:27:29.208Z,95.27
2023-01-13T00:28:00.558Z,95.23
2023-01-13T00:28:32.800Z,95.37
2023-01-13T00:29:04.204Z,95.65
2023-01-13T00:29:35.549Z,95.22
2023-01-13T00:30:07.793Z,95.69
2023-01-13T00:30:39.110Z,95.50
2023-01-13T00:31:19.136Z,95.49
2023-01-13T00:31:50.891Z,95.17
2023-01-13T00:32:22.231Z,95.40
2023-01-13T00:32:53.924Z,95.51
2023-01-13T00:33:25.838Z,95.42
2023-01-13T00:33:58.621Z,95.36
2023-01-13T00:34:30.027Z,95.53
2023-01-13T00:35:01.606Z,95.78
2023-01-13T00:35:32.954Z,95.53
2023-01-13T00:36:06.307Z,94.88
2023-01-13T00:36:37.687Z,95.46
2023-01-13T00:37:12.879Z,95.30
2023-01-13T00:37:44.218Z,95.44
2023-01-13T00:38:15.586Z,95.35
2023-01-13T00:38:47.797Z,95.54
2023-01-13T00:39:19.132Z,95.14
2023-01-13T00:39:51.903Z,95.34
2023-01-13T00:40:23.300Z,95.03
2023-01-13T00:40:56.424Z,94.88
2023-01-13T00:41:29.224Z,95.22
2023-01-13T00:42:18.996Z,94.77
2023-01-13T00:43:08.937Z,95.08
2023-01-13T00:43:40.753Z,95.23
2023-01-13T00:44:12.062Z,95.22
2023-01-13T00:44:43.431Z,94.94
2023-01-13T00:45:15.749Z,95.51
2023-01-13T00:45:47.085Z,95.33
2023-01-13T00:46:21.167Z,95.27
2023-01-13T00:46:52.769Z,94.74
2023-01-13T00:47:24.315Z,94.77
2023-01-13T00:47:55.624Z,94.65
2023-01-13T00:48:28.369Z,95.49
2023-01-13T00:48:59.753Z,95.27
2023-01-13T00:49:31.057Z,95.74
2023-01-13T00:50:02.382Z,95.44
2023-01-13T00:50:33.922Z,95.14
2023-01-13T00:51:10.130Z,95.73
2023-01-13T00:51:41.439Z,95.76
2023-01-13T00:52:12.767Z,95.78
2023-01-13T00:52:44.091Z,95.70
2023-01-13T00:53:17.153Z,96.07
2023-01-13T00:53:50.353Z,96.20
2023-01-13T00:54:21.948Z,96.25
2023-01-13T00:54:53.272Z,96.32
2023-01-13T00:55:24.604Z,96.16
2023-01-13T00:56:04.529Z,96.71
2023-01-13T00:57:24.989Z,96.64
2023-01-13T00:58:03.081Z,96.46
2023-01-13T00:58:34.921Z,96.67
2023-01-13T00:59:06.761Z,96.86
2023-01-13T00:59:38.082Z,96.93
2023-01-13T01:00:10.136Z,96.96
2023-01-13T01:00:42.295Z,96.40
2023-01-13T01:01:17.552Z,96.75
2023-01-13T01:01:49.149Z,96.51
2023-01-13T01:02:20.597Z,97.00
2023-01-13T01:02:51.933Z,97.45
2023-01-13T01:03:23.311Z,96.92
2023-01-13T01:03:55.080Z,97.05
2023-01-13T01:04:26.408Z,96.90
2023-01-13T01:04:59.863Z,97.31
2023-01-13T01:05:33.680Z,97.59
2023-01-13T01:06:14.178Z,97.61
2023-01-13T01:06:45.509Z,97.45
2023-01-13T01:07:16.887Z,97.30
2023-01-13T01:07:48.315Z,97.44
2023-01-13T01:08:19.633Z,97.32
2023-01-13T01:08:52.208Z,97.66
2023-01-13T01:09:23.520Z,97.71
2023-01-13T01:09:54.845Z,97.74
2023-01-13T01:10:26.262Z,97.70
2023-01-13T01:11:18.946Z,97.07
2023-01-13T01:11:50.291Z,97.71
2023-01-13T01:12:21.700Z,97.57
2023-01-13T01:12:53.106Z,97.75
2023-01-13T01:13:24.555Z,97.60
2023-01-13T01:13:58.437Z,97.71
2023-01-13T01:14:29.865Z,97.43
2023-01-13T01:15:01.251Z,98.09
2023-01-13T01:15:32.676Z,97.85
2023-01-13T01:16:09.271Z,98.19
2023-01-13T01:16:41.347Z,97.75
2023-01-13T01:17:12.703Z,97.48
2023-01-13T01:17:44.044Z,98.08
2023-01-13T01:18:15.398Z,97.85
2023-01-13T01:18:48.468Z,97.52
2023-01-13T01:19:20.262Z,97.92
2023-01-13T01:19:51.583Z,97.26
2023-01-13T01:20:22.928Z,97.80
2023-01-13T01:20:54.501Z,97.73
2023-01-13T01:21:27.812Z,97.28
2023-01-13T01:21:59.138Z,97.49
2023-01-13T01:22:30.712Z,98.10
2023-01-13T01:23:02.096Z,97.96
2023-01-13T01:23:34.764Z,97.85
2023-01-13T01:24:06.691Z,98.19
2023-01-13T01:24:38.018Z,98.20
2023-01-13T01:25:09.637Z,98.13
2023-01-13T01:25:40.998Z,97.80
2023-01-13T01:26:21.095Z,97.79
2023-01-13T01:26:52.596Z,97.70
2023-01-13T01:27:23.950Z,98.13
2023-01-13T01:27:55.357Z,98.10
2023-01-13T01:28:26.902Z,98.43
2023-01-13T01:28:58.757Z,97.94
2023-01-13T01:29:30.326Z,97.95
2023-01-13T01:30:01.702Z,97.79
2023-01-13T01:30:33.324Z,97.90
2023-01-13T01:31:25.540Z,98.30
2023-01-13T01:31:58.751Z,98.51
2023-01-13T01:32:30.099Z,97.88
2023-01-13T01:33:03.106Z,97.94
2023-01-13T01:33:34.570Z,98.12
2023-01-13T01:34:06.012Z,97.87
2023-01-13T01:34:39.064Z,97.59
2023-01-13T01:35:10.459Z,97.90
2023-01-13T01:35:42.770Z,97.92
2023-01-13T01:36:16.497Z,97.47
2023-01-13T01:36:48.024Z,97.96
2023-01-13T01:37:19.401Z,97.93
2023-01-13T01:37:50.791Z,97.79
2023-01-13T01:38:23.521Z,98.00
2023-01-13T01:38:57.605Z,98.26
2023-01-13T01:39:28.984Z,98.30
2023-01-13T01:40:00.493Z,97.96
2023-01-13T01:40:31.959Z,98.32
2023-01-13T01:41:03.766Z,98.06
2023-01-13T01:41:36.052Z,97.65
2023-01-13T01:42:33.823Z,97.50
2023-01-13T01:43:38.191Z,97.72
2023-01-13T01:44:48.812Z,98.59
2023-01-13T01:45:24.469Z,98.38
2023-01-13T01:45:56.377Z,98.78
2023-01-13T01:46:44.280Z,98.05
2023-01-13T01:47:18.414Z,97.70
2023-01-13T01:47:56.425Z,97.92
2023-01-13T01:48:30.796Z,98.26
2023-01-13T01:49:20.216Z,98.20
2023-01-13T01:49:51.852Z,98.10
2023-01-13T01:50:23.917Z,98.29
2023-01-13T01:50:55.359Z,98.66
2023-01-13T01:51:30.430Z,98.12
2023-01-13T01:52:23.577Z,98.08
2023-01-13T01:52:59.717Z,98.02
2023-01-13T01:53:32.996Z,97.70
2023-01-13T01:54:08.141Z,97.66
2023-01-13T01:54:42.660Z,98.17
2023-01-13T01:55:17.911Z,97.37
2023-01-13T01:55:49.430Z,97.37
2023-01-13T01:56:21.199Z,98.10
2023-01-13T01:56:53.075Z,97.55
2023-01-13T01:57:32.810Z,97.59
2023-01-13T01:58:20.910Z,98.00
2023-01-13T01:58:53.585Z,97.31
2023-01-13T01:59:27.378Z,97.34
2023-01-13T02:00:00.895Z,97.92
2023-01-13T02:00:32.699Z,97.57
2023-01-13T02:01:04.466Z,97.52
2023-01-13T02:01:37.642Z,97.57
2023-01-13T02:02:09.712Z,97.27
2023-01-13T02:02:44.965Z,97.28
2023-01-13T02:03:18.366Z,97.29
2023-01-13T02:03:59.296Z,97.65
2023-01-13T02:04:34.584Z,97.54
2023-01-13T02:05:06.512Z,97.53
2023-01-13T02:05:38.934Z,97.22
2023-01-13T02:06:11.890Z,97.20
2023-01-13T02:06:45.761Z,97.41
2023-01-13T02:07:20.766Z,97.13
2023-01-13T02:07:54.951Z,97.16
2023-01-13T02:08:26.397Z,96.70
2023-01-13T02:08:59.989Z,97.37
2023-01-13T02:09:32.933Z,96.61
2023-01-13T02:10:08.175Z,97.14
2023-01-13T02:10:42.828Z,96.75
2023-01-13T02:11:53.216Z,96.75
2023-01-13T02:12:29.378Z,96.73
2023-01-13T02:13:05.078Z,96.69
2023-01-13T02:13:36.418Z,96.91
2023-01-13T02:14:07.865Z,96.61
2023-01-13T02:14:40.983Z,96.57
2023-01-13T02:15:19.710Z,96.07
2023-01-13T02:16:11.912Z,96.59
2023-01-13T02:16:50.609Z,96.78
2023-01-13T02:17:21.885Z,96.87
2023-01-13T02:18:16.231Z,96.31
2023-01-13T02:18:58.110Z,96.75
2023-01-13T02:19:44.591Z,95.95
2023-01-13T02:20:35.354Z,95.73
2023-01-13T02:21:17.084Z,95.99
2023-01-13T02:22:09.323Z,96.06
2023-01-13T02:23:38.285Z,96.42
2023-01-13T02:24:47.647Z,95.94
2023-01-13T02:25:50.141Z,96.41
2023-01-13T02:26:50.897Z,95.79
2023-01-13T02:27:44.004Z,96.62
2023-01-13T02:28:36.909Z,95.61
2023-01-13T02:29:47.064Z,95.65
2023-01-13T02:30:43.212Z,95.93
2023-01-13T02:31:33.937Z,95.16
2023-01-13T02:32:16.424Z,94.92
2023-01-13T02:33:34.194Z,94.97
2023-01-13T02:34:25.787Z,94.59
2023-01-13T02:35:17.539Z,95.14
2023-01-13T02:35:58.369Z,94.65
2023-01-13T02:36:52.253Z,94.58
2023-01-13T02:37:29.927Z,94.40
2023-01-13T02:38:02.395Z,94.77
2023-01-13T02:38:42.250Z,94.90
2023-01-13T02:39:28.892Z,94.93
2023-01-13T02:40:08.226Z,94.48
2023-01-13T02:40:56.540Z,94.83
2023-01-13T02:41:55.328Z,94.30
2023-01-13T02:42:52.289Z,94.77
2023-01-13T02:43:50.794Z,94.56
2023-01-13T02:44:28.526Z,94.78
2023-01-13T02:45:16.343Z,94.47
2023-01-13T02:46:01.657Z,94.02
2023-01-13T02:46:39.823Z,94.64
2023-01-13T02:47:25.125Z,94.05
2023-01-13T02:47:59.422Z,94.46
2023-01-13T02:48:31.708Z,94.36
2023-01-13T02:49:08.746Z,94.58
2023-01-13T02:49:48.921Z,93.91
2023-01-13T02:50:32.669Z,94.16
2023-01-13T02:51:12.138Z,94.16
2023-01-13T02:51:47.520Z,93.90
2023-01-13T02:52:34.608Z,93.51
2023-01-13T02:53:13.528Z,93.15
2023-01-13T02:53:57.343Z,93.15
2023-01-13T02:54:30.320Z,93.19
2023-01-13T02:55:08.762Z,93.19
2023-01-13T02:55:53.269Z,93.37
2023-01-13T02:56:26.644Z,92.85
2023-01-13T02:57:00.196Z,92.79
2023-01-13T02:57:34.082Z,93.01
2023-01-13T02:58:10.331Z,93.13
2023-01-13T02:58:45.247Z,92.67
2023-01-13T02:59:18.579Z,93.40
2023-01-13T02:59:54.367Z,92.48
2023-01-13T03:00:26.853Z,93.24
2023-01-13T03:00:58.460Z,93.25
2023-01-13T03:01:30.001Z,93.14
2023-01-13T03:02:03.486Z,93.00
2023-01-13T03:02:35.492Z,92.33
2023-01-13T03:03:07.214Z,92.54
2023-01-13T03:03:38.652Z,92.37
2023-01-13T03:04:13.664Z,92.31
2023-01-13T03:04:57.101Z,92.26
2023-01-13T03:05:31.771Z,92.20
2023-01-13T03:06:36.755Z,92.68
2023-01-13T03:08:01.003Z,92.70
2023-01-13T03:08:50.458Z,92.98
2023-01-13T03:09:38.616Z,93.03
2023-01-13T03:10:24.902Z,91.89
2023-01-13T03:11:16.327Z,92.60
2023-01-13T03:12:10.325Z,92.07
2023-01-13T03:13:03.861Z,92.00
2023-01-13T03:13:48.767Z,91.64
2023-01-13T03:14:33.426Z,91.64
2023-01-13T03:15:17.825Z,91.69
2023-01-13T03:16:00.934Z,91.79
2023-01-13T03:17:41.802Z,92.03
2023-01-13T03:18:32.325Z,92.16
2023-01-13T03:19:15.976Z,91.66
2023-01-13T03:20:00.710Z,91.48
2023-01-13T03:20:42.246Z,91.60
2023-01-13T03:21:30.885Z,92.05
2023-01-13T03:22:14.468Z,91.31
2023-01-13T03:23:01.051Z,91.31
2023-01-13T03:23:51.048Z,91.87
2023-01-13T03:24:40.096Z,91.51
2023-01-13T03:25:24.349Z,91.30
2023-01-13T03:26:06.577Z,91.68
2023-01-13T03:26:47.629Z,91.48
2023-01-13T03:27:23.291Z,90.87
2023-01-13T03:28:03.050Z,91.44
2023-01-13T03:28:42.685Z,91.86
2023-01-13T03:29:19.970Z,91.72
2023-01-13T03:30:01.019Z,91.11
2023-01-13T03:30:54.546Z,91.12
2023-01-13T03:31:32.221Z,91.43
2023-01-13T03:32:29.109Z,90.68
2023-01-13T03:33:07.075Z,91.36
2023-01-13T03:33:45.325Z,91.23
2023-01-13T03:34:22.448Z,91.23
2023-01-13T03:34:58.813Z,91.41
2023-01-13T03:35:40.837Z,91.55
2023-01-13T03:36:16.624Z,91.68
2023-01-13T03:36:53.256Z,90.77
2023-01-13T03:37:30.814Z,91.34
2023-01-13T03:38:34.259Z,91.14
2023-01-13T03:39:11.686Z,91.09
2023-01-13T03:39:51.322Z,91.51
2023-01-13T03:40:28.721Z,91.04
2023-01-13T03:41:06.636Z,91.70
2023-01-13T03:41:40.840Z,91.72
2023-01-13T03:42:18.462Z,91.34
2023-01-13T03:43:13.908Z,91.91
2023-01-13T03:44:15.516Z,91.75
2023-01-13T03:44:54.970Z,91.44
2023-01-13T03:45:27.533Z,91.45
2023-01-13T03:46:11.971Z,91.48
2023-01-13T03:46:54.287Z,91.61
2023-01-13T03:47:34.669Z,91.73
2023-01-13T03:48:10.995Z,91.40
2023-01-13T03:48:45.607Z,91.34
2023-01-13T03:49:21.679Z,91.71
2023-01-13T03:50:34.910Z,91.64
2023-01-13T03:51:11.705Z,91.48
2023-01-13T03:51:47.928Z,91.15
2023-01-13T03:52:26.235Z,90.80
2023-01-13T03:53:06.676Z,91.24
2023-01-13T03:54:36.053Z,90.74
2023-01-13T03:55:13.079Z,91.10
2023-01-13T03:55:51.044Z,91.09
2023-01-13T03:56:31.145Z,91.20
2023-01-13T03:57:09.116Z,91.01
2023-01-13T03:57:49.470Z,91.26
2023-01-13T03:58:29.760Z,91.68
2023-01-13T03:59:04.918Z,90.90
2023-01-13T03:59:43.064Z,91.66
2023-01-13T04:00:15.608Z,91.42
2023-01-13T04:00:53.594Z,91.50
2023-01-13T04:01:32.302Z,90.99
2023-01-13T04:02:09.470Z,91.06
2023-01-13T04:02:50.406Z,91.16
2023-01-13T04:03:33.574Z,90.90
2023-01-13T04:04:14.597Z,90.70
2023-01-13T04:04:55.441Z,91.47
2023-01-13T04:05:27.521Z,90.96
2023-01-13T04:06:11.814Z,91.45
2023-01-13T04:06:53.896Z,91.59
2023-01-13T04:07:37.568Z,91.55
2023-01-13T04:08:28.616Z,91.45
2023-01-13T04:09:29.472Z,91.17
2023-01-13T04:10:05.287Z,91.14
2023-01-13T04:10:52.489Z,91.38
2023-01-13T04:11:35.699Z,90.92
2023-01-13T04:12:09.932Z,90.86
2023-01-13T04:13:01.268Z,91.15
2023-01-13T04:13:38.039Z,91.05
2023-01-13T04:14:12.559Z,91.79
2023-01-13T04:14:45.291Z,90.92
2023-01-13T04:15:20.456Z,91.08
2023-01-13T04:15:52.081Z,90.81
2023-01-13T04:16:23.879Z,90.91
2023-01-13T04:16:56.467Z,90.62
2023-01-13T04:17:28.051Z,90.45
2023-01-13T04:18:21.723Z,91.32
2023-01-13T04:18:53.119Z,90.89
2023-01-13T04:19:24.576Z,91.23
2023-01-13T04:19:56.057Z,91.23
2023-01-13T04:20:27.466Z,90.80
2023-01-13T04:21:01.875Z,91.34
2023-01-13T04:21:34.973Z,91.14
2023-01-13T04:22:06.540Z,90.72
2023-01-13T04:22:37.949Z,90.78
2023-01-13T04:23:10.511Z,90.51
2023-01-13T04:23:41.875Z,90.51
2023-01-13T04:24:13.454Z,90.63
2023-01-13T04:24:44.909Z,90.58
2023-01-13T04:25:16.405Z,90.60
2023-01-13T04:25:48.273Z,90.24
2023-01-13T04:26:19.898Z,89.83
2023-01-13T04:26:51.809Z,90.27
2023-01-13T04:27:23.183Z,90.51
2023-01-13T04:27:54.616Z,90.44
2023-01-13T04:28:26.275Z,90.54
2023-01-13T04:28:57.646Z,90.55
2023-01-13T04:29:29.125Z,90.54
2023-01-13T04:30:00.697Z,90.06
2023-01-13T04:30:32.440Z,89.96
2023-01-13T04:31:03.934Z,89.71
2023-01-13T04:31:35.364Z,90.02
2023-01-13T04:32:06.707Z,90.06
2023-01-13T04:32:38.097Z,89.43
2023-01-13T04:33:09.573Z,89.42
2023-01-13T04:33:41.207Z,89.33
2023-01-13T04:34:12.861Z,89.61
2023-01-13T04:34:44.330Z,89.70
2023-01-13T04:35:16.104Z,89.30
2023-01-13T04:35:48.226Z,89.61
2023-01-13T04:36:19.637Z,89.31
2023-01-13T04:36:51.011Z,89.68
2023-01-13T04:37:22.400Z,89.31
2023-01-13T04:37:53.773Z,89.34
2023-01-13T04:38:25.182Z,89.42
2023-01-13T04:38:56.560Z,89.39
2023-01-13T04:39:27.952Z,89.40
2023-01-13T04:39:59.342Z,89.24
2023-01-13T04:40:30.712Z,88.69
2023-01-13T04:41:02.117Z,88.70
2023-01-13T04:41:53.485Z,88.86
2023-01-13T04:42:24.839Z,88.46
2023-01-13T04:42:56.261Z,88.39
2023-01-13T04:43:27.592Z,88.25
2023-01-13T04:43:58.913Z,88.49
2023-01-13T04:45:24.080Z,88.13
2023-01-13T04:45:55.490Z,88.59
2023-01-13T04:46:26.939Z,87.71
2023-01-13T04:46:58.769Z,87.73
2023-01-13T04:47:30.185Z,87.39
2023-01-13T04:48:01.804Z,87.67
2023-01-13T04:48:33.242Z,87.46
2023-01-13T04:49:04.809Z,87.28
2023-01-13T04:49:36.157Z,87.07
2023-01-13T04:50:08.501Z,87.27
2023-01-13T04:50:40.060Z,87.42
2023-01-13T04:51:11.472Z,86.90
2023-01-13T04:52:03.761Z,87.11
2023-01-13T04:52:35.150Z,87.61
2023-01-13T04:53:07.061Z,86.74
2023-01-13T04:53:38.445Z,87.13
2023-01-13T04:54:11.550Z,87.28
2023-01-13T04:54:42.889Z,87.12
2023-01-13T04:55:14.777Z,87.14
2023-01-13T04:55:47.874Z,87.52
2023-01-13T04:56:19.236Z,87.29
2023-01-13T04:56:50.644Z,87.20
2023-01-13T04:57:22.113Z,87.48
2023-01-13T04:57:53.728Z,87.58
2023-01-13T04:58:25.332Z,87.14
2023-01-13T04:58:57.199Z,87.33
2023-01-13T04:59:28.684Z,87.01
2023-01-13T05:00:00.308Z,86.58
2023-01-13T05:00:32.045Z,86.68
2023-01-13T05:01:03.524Z,86.42
2023-01-13T05:01:35.278Z,86.72
2023-01-13T05:02:09.119Z,86.39
2023-01-13T05:02:40.811Z,86.40
2023-01-13T05:03:12.212Z,86.46
2023-01-13T05:03:43.561Z,86.85
2023-01-13T05:04:15.634Z,86.29
2023-01-13T05:04:47.855Z,86.80
2023-01-13T05:05:19.267Z,87.21
2023-01-13T05:05:52.087Z,86.46
2023-01-13T05:06:23.422Z,86.88
2023-01-13T05:06:54.866Z,86.56
2023-01-13T05:07:26.544Z,87.13
2023-01-13T05:07:58.271Z,86.34
2023-01-13T05:08:29.645Z,86.90
2023-01-13T05:09:01.097Z,86.76
2023-01-13T05:09:32.600Z,86.88
2023-01-13T05:10:04.527Z,87.02
2023-01-13T05:10:36.787Z,86.85
2023-01-13T05:11:28.570Z,87.09
2023-01-13T05:12:18.637Z,87.26
2023-01-13T05:13:08.561Z,86.96
2023-01-13T05:13:58.435Z,87.23
2023-01-13T05:14:48.452Z,87.54
2023-01-13T05:15:38.648Z,87.31
2023-01-13T05:16:30.784Z,87.24
2023-01-13T05:17:03.240Z,87.55
2023-01-13T05:17:35.889Z,86.99
2023-01-13T05:18:07.371Z,87.40
2023-01-13T05:18:38.905Z,87.02
2023-01-13T05:19:10.672Z,87.16
2023-01-13T05:19:42.201Z,86.95
2023-01-13T05:20:14.107Z,87.24
2023-01-13T05:20:46.034Z,87.02
2023-01-13T05:21:43.256Z,87.52
2023-01-13T05:22:33.297Z,87.79
2023-01-13T05:23:23.135Z,87.38
2023-01-13T05:24:12.997Z,87.67
2023-01-13T05:25:03.483Z,88.24
2023-01-13T05:25:39.055Z,87.85
2023-01-13T05:26:10.461Z,87.89
2023-01-13T05:26:41.799Z,88.40
2023-01-13T05:27:13.199Z,88.25
2023-01-13T05:27:44.674Z,88.30
2023-01-13T05:28:16.359Z,87.85
2023-01-13T05:28:47.799Z,88.22
2023-01-13T05:29:19.362Z,88.03
2023-01-13T05:29:50.726Z,87.79
2023-01-13T05:30:24.104Z,87.78
2023-01-13T05:30:56.960Z,88.51
2023-01-13T05:31:28.410Z,88.03
2023-01-13T05:32:02.504Z,88.16
2023-01-13T05:32:33.941Z,88.04
2023-01-13T05:33:05.344Z,88.18
2023-01-13T05:33:36.924Z,88.12
2023-01-13T05:34:08.350Z,88.36
2023-01-13T05:34:39.936Z,88.64
2023-01-13T05:35:11.429Z,88.61
2023-01-13T05:35:44.827Z,88.54
2023-01-13T05:36:16.208Z,88.45
2023-01-13T05:36:47.634Z,88.53
2023-01-13T05:37:19.055Z,88.42
2023-01-13T05:37:51.335Z,88.56
2023-01-13T05:38:22.921Z,88.46
2023-01-13T05:38:54.307Z,88.85
2023-01-13T05:39:27.306Z,88.39
2023-01-13T05:40:17.430Z,88.54
2023-01-13T05:41:07.366Z,88.59
2023-01-13T05:41:57.073Z,88.75
2023-01-13T05:42:46.848Z,89.01
2023-01-13T05:43:21.331Z,89.04
2023-01-13T05:43:52.770Z,88.85
2023-01-13T05:44:24.554Z,88.98
2023-01-13T05:44:55.913Z,88.67
2023-01-13T05:45:27.670Z,88.94
2023-01-13T05:46:02.081Z,88.82
2023-01-13T05:46:33.639Z,89.13
2023-01-13T05:47:05.277Z,89.40
2023-01-13T05:47:36.968Z,89.41
2023-01-13T05:48:08.347Z,88.99
2023-01-13T05:48:42.344Z,89.05
2023-01-13T05:49:13.675Z,89.19
2023-01-13T05:49:45.048Z,89.50
2023-01-13T05:50:16.785Z,89.88
2023-01-13T05:50:49.471Z,89.16
2023-01-13T05:51:26.167Z,89.40
2023-01-13T05:51:57.774Z,89.55
2023-01-13T05:52:29.285Z,89.37
2023-01-13T05:53:00.652Z,89.01
2023-01-13T05:53:32.557Z,89.44
2023-01-13T05:54:04.049Z,89.29
2023-01-13T05:54:35.403Z,89.65
2023-01-13T05:55:07.428Z,89.15
2023-01-13T05:55:40.535Z,89.03
2023-01-13T05:56:12.154Z,89.47
2023-01-13T05:56:43.643Z,89.63
2023-01-13T05:57:15.001Z,88.94
2023-01-13T05:57:46.348Z,88.98
2023-01-13T05:58:19.671Z,89.53
2023-01-13T05:58:51.029Z,89.32
2023-01-13T05:59:22.416Z,89.32
2023-01-13T05:59:53.898Z,89.36
2023-01-13T06:00:25.514Z,88.92
2023-01-13T06:01:02.191Z,89.27
2023-01-13T06:01:34.035Z,89.43
2023-01-13T06:02:05.546Z,89.68
2023-01-13T06:02:37.141Z,89.34
2023-01-13T06:03:09.605Z,89.46
2023-01-13T06:03:41.041Z,89.23
2023-01-13T06:04:12.501Z,89.70
2023-01-13T06:04:43.980Z,89.92
2023-01-13T06:05:15.893Z,89.17
2023-01-13T06:05:48.643Z,89.26
2023-01-13T06:06:19.973Z,89.26
2023-01-13T06:06:51.370Z,89.88
2023-01-13T06:07:22.849Z,88.93
2023-01-13T06:07:58.168Z,89.05
2023-01-13T06:08:31.278Z,89.00
2023-01-13T06:09:02.725Z,89.16
2023-01-13T06:09:34.164Z,89.20
2023-01-13T06:10:06.020Z,89.20
2023-01-13T06:10:37.440Z,89.40
2023-01-13T06:11:08.821Z,89.33
2023-01-13T06:11:40.179Z,89.42
2023-01-13T06:12:12.984Z,89.67
2023-01-13T06:12:44.474Z,89.45
2023-01-13T06:13:16.171Z,89.05
2023-01-13T06:13:47.562Z,89.25
2023-01-13T06:14:19.043Z,89.69
2023-01-13T06:14:50.413Z,89.11
2023-01-13T06:15:22.027Z,89.29
2023-01-13T06:15:59.866Z,89.43
2023-01-13T06:16:31.381Z,89.40
2023-01-13T06:17:02.818Z,88.47
2023-01-13T06:17:34.271Z,89.22
2023-01-13T06:18:05.878Z,89.02
2023-01-13T06:18:37.239Z,88.93
2023-01-13T06:19:11.732Z,88.52
2023-01-13T06:19:43.065Z,88.77
2023-01-13T06:20:15.847Z,89.49
2023-01-13T06:20:47.345Z,88.84
2023-01-13T06:21:18.721Z,89.21
2023-01-13T06:21:50.461Z,88.65
2023-01-13T06:22:26.693Z,89.22
2023-01-13T06:22:59.474Z,88.85
2023-01-13T06:23:34.948Z,88.68
2023-01-13T06:24:07.540Z,88.88
2023-01-13T06:24:39.646Z,88.95
2023-01-13T06:25:46.156Z,89.16
2023-01-13T06:26:20.841Z,88.33
2023-01-13T06:26:52.337Z,88.90
2023-01-13T06:27:24.569Z,88.23
2023-01-13T06:27:59.372Z,88.49
2023-01-13T06:28:30.755Z,88.43
2023-01-13T06:29:02.187Z,88.26
2023-01-13T06:29:34.009Z,87.77
2023-01-13T06:30:05.885Z,88.00
2023-01-13T06:30:45.317Z,88.52
2023-01-13T06:31:16.998Z,87.68
2023-01-13T06:31:48.625Z,88.34
2023-01-13T06:32:28.013Z,88.31
2023-01-13T06:33:01.893Z,88.23
2023-01-13T06:33:37.343Z,88.72
2023-01-13T06:34:13.788Z,88.61
2023-01-13T06:34:51.321Z,88.38
2023-01-13T06:35:28.325Z,88.53
2023-01-13T06:36:05.723Z,88.41
2023-01-13T06:36:43.956Z,88.45
2023-01-13T06:37:19.950Z,88.41
2023-01-13T06:37:54.107Z,88.19
2023-01-13T06:38:28.448Z,87.86
2023-01-13T06:39:02.202Z,87.94
2023-01-13T06:39:35.812Z,88.07
2023-01-13T06:40:07.997Z,87.74
2023-01-13T06:40:42.397Z,87.93
2023-01-13T06:41:14.210Z,88.11
2023-01-13T06:42:08.242Z,88.25
2023-01-13T06:42:58.360Z,87.65
2023-01-13T06:43:29.864Z,87.81
2023-01-13T06:44:01.237Z,88.28
2023-01-13T06:44:33.075Z,88.17
2023-01-13T06:45:04.713Z,88.38
2023-01-13T06:45:36.366Z,88.24
2023-01-13T06:46:08.013Z,87.78
2023-01-13T06:46:39.561Z,87.73
2023-01-13T06:47:11.087Z,87.74
2023-01-13T06:47:43.443Z,87.61
2023-01-13T06:48:15.296Z,87.62
2023-01-13T06:48:46.659Z,87.42
2023-01-13T06:49:20.619Z,87.33
2023-01-13T06:49:53.533Z,88.02
2023-01-13T06:50:25.482Z,87.24
2023-01-13T06:50:56.806Z,87.32
2023-01-13T06:51:28.137Z,87.46
2023-01-13T06:51:59.551Z,87.04
2023-01-13T06:52:30.895Z,87.09
2023-01-13T06:53:02.453Z,86.76
2023-01-13T06:53:33.878Z,87.01
2023-01-13T06:54:05.423Z,87.46
2023-01-13T06:54:36.899Z,87.23
2023-01-13T06:55:08.606Z,86.72
2023-01-13T06:55:40.276Z,87.11
2023-01-13T06:56:11.652Z,86.76
2023-01-13T06:56:42.999Z,86.70
2023-01-13T06:57:14.381Z,86.79
2023-01-13T06:57:48.746Z,86.71
2023-01-13T06:58:20.140Z,86.81
2023-01-13T06:58:51.537Z,86.96
2023-01-13T06:59:22.986Z,87.48
2023-01-13T06:59:54.313Z,87.38
2023-01-13T07:00:26.982Z,87.18
2023-01-13T07:01:01.261Z,87.63
2023-01-13T07:01:32.936Z,87.06
2023-01-13T07:02:04.529Z,87.08
2023-01-13T07:02:36.080Z,87.44
2023-01-13T07:03:13.227Z,87.90
2023-01-13T07:03:44.642Z,87.58
2023-01-13T07:04:16.403Z,87.53
2023-01-13T07:04:47.924Z,87.74
2023-01-13T07:05:20.362Z,87.51
2023-01-13T07:05:54.167Z,87.42
2023-01-13T07:06:25.522Z,87.72
2023-01-13T07:06:57.047Z,87.53
2023-01-13T07:07:28.454Z,87.97
2023-01-13T07:07:59.966Z,88.27
2023-01-13T07:08:31.300Z,87.64
2023-01-13T07:09:03.063Z,88.05
2023-01-13T07:09:34.541Z,88.09
2023-01-13T07:10:58.189Z,88.48
2023-01-13T07:11:29.659Z,88.70
2023-01-13T07:12:01.026Z,88.29
2023-01-13T07:12:52.343Z,88.27
2023-01-13T07:13:42.405Z,87.94
2023-01-13T07:14:32.523Z,88.64
2023-01-13T07:15:19.248Z,88.72
2023-01-13T07:15:59.229Z,88.37
2023-01-13T07:16:30.808Z,89.00
2023-01-13T07:17:02.239Z,88.39
2023-01-13T07:17:33.722Z,88.48
2023-01-13T07:18:05.295Z,88.75
2023-01-13T07:18:37.001Z,88.33
2023-01-13T07:19:08.543Z,88.63
2023-01-13T07:19:39.909Z,88.94
2023-01-13T07:20:11.584Z,88.81
2023-01-13T07:20:42.956Z,89.08
2023-01-13T07:21:18.742Z,88.75
2023-01-13T07:22:08.682Z,88.54
2023-01-13T07:22:40.231Z,88.66
2023-01-13T07:23:11.633Z,87.96
2023-01-13T07:23:43.032Z,88.77
2023-01-13T07:24:14.392Z,88.72
2023-01-13T07:24:45.831Z,88.83
2023-01-13T07:25:17.248Z,88.52
2023-01-13T07:25:49.705Z,88.34
2023-01-13T07:26:21.131Z,87.74
2023-01-13T07:26:52.783Z,88.27
2023-01-13T07:27:24.123Z,88.16
2023-01-13T07:27:57.347Z,88.84
2023-01-13T07:28:30.083Z,88.54
2023-01-13T07:29:01.539Z,88.62
2023-01-13T07:29:33.146Z,88.30
2023-01-13T07:30:06.135Z,88.01
2023-01-13T07:30:38.738Z,87.88
2023-01-13T07:31:18.705Z,87.31
2023-01-13T07:31:50.578Z,87.85
2023-01-13T07:32:22.031Z,87.45
2023-01-13T07:32:53.378Z,88.03
2023-01-13T07:33:25.283Z,87.97
2023-01-13T07:33:56.743Z,87.88
2023-01-13T07:34:28.121Z,87.86
2023-01-13T07:35:04.717Z,87.98
2023-01-13T07:35:36.125Z,87.89
2023-01-13T07:36:07.903Z,87.49
2023-01-13T07:36:39.354Z,87.24
2023-01-13T07:37:10.780Z,87.39
2023-01-13T07:37:42.192Z,87.38
2023-01-13T07:38:14.140Z,87.70
2023-01-13T07:38:45.507Z,87.25
2023-01-13T07:39:17.018Z,87.19
2023-01-13T07:39:50.138Z,87.12
2023-01-13T07:40:21.531Z,87.38
2023-01-13T07:40:53.212Z,86.99
2023-01-13T07:41:42.997Z,86.39
2023-01-13T07:42:33.231Z,86.92
2023-01-13T07:43:23.178Z,87.11
2023-01-13T07:43:54.615Z,86.92
2023-01-13T07:44:27.642Z,87.15
2023-01-13T07:44:59.286Z,86.73